createdAt,value
2019-04-11T00:01:40.945Z,9.58
2019-04-11T00:04:13.605Z,10.70
2019-04-11T00:06:43.538Z,9.33
2019-04-11T00:09:16.712Z,9.13
2019-04-11T00:11:48.798Z,9.78
2019-04-11T00:14:18.632Z,8.55
2019-04-11T00:16:48.364Z,9.25
2019-04-11T00:19:19.081Z,9.10
2019-04-11T00:21:48.979Z,8.98
2019-04-11T00:24:18.766Z,8.48
2019-04-11T00:26:48.709Z,10.05
2019-04-11T00:29:18.497Z,8.90
2019-04-11T00:31:49.422Z,9.75
2019-04-11T00:34:20.597Z,7.92
2019-04-11T00:36:50.828Z,9.50
2019-04-11T00:39:21.548Z,9.13
2019-04-11T00:41:52.388Z,9.03
2019-04-11T00:44:23.046Z,9.43
2019-04-11T00:46:52.953Z,9.85
2019-04-11T00:49:22.608Z,9.00
2019-04-11T00:51:52.332Z,9.83
2019-04-11T00:54:22.980Z,8.43
2019-04-11T00:56:52.940Z,8.75
2019-04-11T00:59:24.593Z,8.93
2019-04-11T01:01:54.620Z,9.70
2019-04-11T01:04:25.549Z,8.83
2019-04-11T01:06:55.580Z,8.88
2019-04-11T01:09:26.403Z,8.95
2019-04-11T01:11:58.396Z,9.45
2019-04-11T01:14:29.954Z,9.45
2019-04-11T01:17:01.153Z,9.88
2019-04-11T01:19:31.232Z,9.83
2019-04-11T01:22:01.300Z,9.20
2019-04-11T01:24:31.499Z,10.00
2019-04-11T01:27:01.639Z,9.58
2019-04-11T01:29:31.532Z,9.15
2019-04-11T01:32:09.132Z,9.45
2019-04-11T01:34:40.566Z,9.73
2019-04-11T01:37:11.423Z,10.50
2019-04-11T01:39:53.620Z,10.18
2019-04-11T01:42:25.037Z,9.05
2019-04-11T01:44:56.932Z,11.65
2019-04-11T01:47:39.254Z,9.10
2019-04-11T01:50:14.756Z,8.80
2019-04-11T01:52:44.710Z,10.90
2019-04-11T01:55:14.972Z,9.38
2019-04-11T01:57:46.407Z,10.50
2019-04-11T02:00:24.334Z,9.18
2019-04-11T02:02:57.083Z,10.20
2019-04-11T02:05:34.911Z,9.68
2019-04-11T02:08:05.206Z,10.80
2019-04-11T02:10:35.486Z,9.90
2019-04-11T02:13:05.900Z,9.58
2019-04-11T02:15:56.831Z,9.93
2019-04-11T02:18:27.658Z,10.28
2019-04-11T02:21:03.213Z,9.30
2019-04-11T02:23:47.634Z,10.38
2019-04-11T02:26:22.063Z,8.75
2019-04-11T02:28:53.038Z,11.70
2019-04-11T02:31:23.370Z,8.65
2019-04-11T02:33:57.312Z,9.95
2019-04-11T02:36:29.570Z,10.25
2019-04-11T02:39:16.142Z,9.60
2019-04-11T02:41:54.972Z,9.98
2019-04-11T02:44:39.885Z,8.80
2019-04-11T02:47:07.902Z,10.98
2019-04-11T02:49:35.661Z,10.82
2019-04-11T02:52:09.456Z,9.75
2019-04-11T02:54:40.979Z,10.18
2019-04-11T02:57:14.088Z,10.50
2019-04-11T02:59:46.285Z,9.95
2019-04-11T03:02:23.812Z,10.78
2019-04-11T03:04:56.167Z,8.58
2019-04-11T03:07:35.993Z,11.15
2019-04-11T03:10:09.345Z,9.45
2019-04-11T03:12:40.531Z,10.60
2019-04-11T03:15:28.826Z,9.58
2019-04-11T03:17:46.157Z,10.00
2019-04-11T03:20:26.627Z,9.58
2019-04-11T03:22:57.100Z,10.75
2019-04-11T03:25:22.627Z,9.23
2019-04-11T03:27:54.275Z,12.90
2019-04-11T03:30:38.100Z,11.90
2019-04-11T03:36:27.600Z,11.50
2019-04-11T03:38:23.099Z,11.05
2019-04-11T03:40:52.081Z,11.18
2019-04-11T03:43:23.140Z,11.97
2019-04-11T03:46:02.075Z,10.40
2019-04-11T03:48:29.216Z,10.18
2019-04-11T03:50:54.587Z,10.35
2019-04-11T03:53:30.091Z,9.75
2019-04-11T03:56:07.735Z,11.38
2019-04-11T03:58:41.729Z,11.57
2019-04-11T04:01:13.821Z,11.55
2019-04-11T04:03:53.942Z,12.70
2019-04-11T04:06:25.560Z,12.15
2019-04-11T04:08:56.376Z,11.08
2019-04-11T04:11:27.677Z,9.98
2019-04-11T04:14:17.176Z,11.08
2019-04-11T04:17:01.148Z,12.25
2019-04-11T04:19:41.145Z,10.72
2019-04-11T04:22:15.976Z,10.85
2019-04-11T04:24:49.153Z,9.85
2019-04-11T04:27:23.278Z,10.43
2019-04-11T04:29:57.260Z,12.50
2019-04-11T04:32:25.145Z,11.90
2019-04-11T04:34:58.413Z,10.55
2019-04-11T04:37:31.924Z,11.80
2019-04-11T04:40:24.212Z,11.85
2019-04-11T04:42:43.637Z,10.30
2019-04-11T04:45:11.777Z,11.20
2019-04-11T04:47:53.998Z,10.80
2019-04-11T04:50:28.686Z,11.20
2019-04-11T04:53:00.951Z,11.50
2019-04-11T04:55:32.443Z,10.88
2019-04-11T04:58:04.927Z,11.88
2019-04-11T05:00:35.002Z,11.80
2019-04-11T05:03:05.580Z,12.28
2019-04-11T05:05:38.968Z,12.63
2019-04-11T05:08:20.727Z,12.78
2019-04-11T05:10:57.882Z,11.25
2019-04-11T05:13:28.193Z,11.85
2019-04-11T05:16:08.535Z,11.68
2019-04-11T05:18:30.412Z,10.70
2019-04-11T05:21:01.167Z,12.47
2019-04-11T05:23:37.345Z,12.25
2019-04-11T05:26:07.428Z,12.07
2019-04-11T05:28:37.400Z,12.05
2019-04-11T05:31:08.061Z,11.00
2019-04-11T05:33:39.084Z,13.13
2019-04-11T05:36:12.306Z,12.10
2019-04-11T05:38:44.282Z,13.22
2019-04-11T05:41:15.349Z,12.13
2019-04-11T05:43:49.385Z,12.30
2019-04-11T05:46:33.443Z,12.47
2019-04-11T05:49:02.652Z,11.57
2019-04-11T05:51:40.874Z,11.28
2019-04-11T05:54:10.746Z,12.70
2019-04-11T05:56:41.916Z,10.82
2019-04-11T05:59:15.138Z,12.28
2019-04-11T06:01:46.826Z,12.50
2019-04-11T06:04:22.401Z,12.20
2019-04-11T06:07:00.058Z,12.65
2019-04-11T06:09:35.954Z,11.55
2019-04-11T06:12:17.159Z,12.15
2019-04-11T06:14:57.894Z,12.30
2019-04-11T06:17:38.491Z,13.10
2019-04-11T06:20:19.918Z,11.97
2019-04-11T06:23:00.579Z,12.00
2019-04-11T06:25:38.063Z,12.43
2019-04-11T06:28:24.326Z,12.40
2019-04-11T06:31:26.318Z,12.28
2019-04-11T06:34:00.814Z,12.70
2019-04-11T06:36:41.329Z,12.10
2019-04-11T06:39:15.790Z,12.28
2019-04-11T06:41:59.053Z,12.35
2019-04-11T06:44:40.063Z,12.25
2019-04-11T06:47:12.465Z,13.30
2019-04-11T06:50:04.063Z,13.15
2019-04-11T06:52:36.916Z,14.40
2019-04-11T06:55:10.876Z,12.58
2019-04-11T06:57:49.991Z,12.33
2019-04-11T07:00:21.025Z,12.53
2019-04-11T07:02:57.162Z,13.28
2019-04-11T07:05:29.058Z,12.60
2019-04-11T07:08:02.052Z,12.40
2019-04-11T07:10:34.204Z,11.95
2019-04-11T07:13:07.748Z,13.98
2019-04-11T07:15:39.760Z,13.28
2019-04-11T07:18:24.819Z,14.77
2019-04-11T07:21:03.049Z,12.70
2019-04-11T07:23:57.472Z,12.93
2019-04-11T07:26:42.096Z,13.17
2019-04-11T07:29:15.182Z,13.80
2019-04-11T07:31:48.305Z,12.27
2019-04-11T07:34:36.163Z,14.47
2019-04-11T07:37:28.236Z,13.00
2019-04-11T07:40:09.457Z,13.50
2019-04-11T07:42:52.230Z,13.20
2019-04-11T07:45:25.328Z,14.70
2019-04-11T07:48:00.909Z,14.63
2019-04-11T07:50:31.193Z,15.40
2019-04-11T07:53:04.924Z,13.27
2019-04-11T07:55:36.437Z,14.10
2019-04-11T07:58:13.061Z,14.37
2019-04-11T08:01:01.518Z,12.73
2019-04-11T08:03:45.080Z,12.87
2019-04-11T08:06:22.342Z,15.00
2019-04-11T08:09:13.249Z,13.97
2019-04-11T08:11:44.925Z,14.07
2019-04-11T08:14:18.330Z,13.70
2019-04-11T08:16:53.296Z,14.60
2019-04-11T08:19:31.091Z,13.43
2019-04-11T08:22:03.051Z,15.00
2019-04-11T08:25:03.645Z,12.50
2019-04-11T08:28:04.305Z,14.30
2019-04-11T08:30:41.556Z,14.10
2019-04-11T08:33:11.835Z,12.60
2019-04-11T08:36:03.829Z,15.30
2019-04-11T08:38:36.262Z,14.57
2019-04-11T08:41:15.488Z,13.93
2019-04-11T08:43:47.667Z,13.93
2019-04-11T08:46:20.682Z,15.37
2019-04-11T08:49:03.672Z,15.60
2019-04-11T08:51:35.722Z,15.67
2019-04-11T08:54:33.289Z,15.30
2019-04-11T08:57:13.755Z,15.53
2019-04-11T09:00:02.171Z,14.60
2019-04-11T09:02:49.313Z,16.30
2019-04-11T09:05:26.948Z,13.60
2019-04-11T09:08:05.820Z,15.00
2019-04-11T09:10:53.538Z,14.63
2019-04-11T09:13:29.075Z,15.07
2019-04-11T09:16:17.540Z,14.27
2019-04-11T09:18:50.956Z,14.23
2019-04-11T09:21:41.147Z,15.10
2019-04-11T09:24:15.275Z,14.50
2019-04-11T09:27:02.877Z,14.70
2019-04-11T09:29:56.903Z,15.07
2019-04-11T09:32:52.847Z,15.63
2019-04-11T09:35:31.191Z,15.83
2019-04-11T09:38:04.248Z,16.87
2019-04-11T09:40:41.969Z,15.90
2019-04-11T09:43:15.944Z,16.13
2019-04-11T09:46:03.844Z,15.73
2019-04-11T09:48:46.329Z,16.90
2019-04-11T09:51:21.258Z,15.33
2019-04-11T09:53:59.221Z,16.17
2019-04-11T09:56:33.490Z,15.57
2019-04-11T09:59:05.806Z,16.70
2019-04-11T10:01:56.062Z,15.67
2019-04-11T10:04:33.994Z,15.27
2019-04-11T10:07:23.782Z,16.77
2019-04-11T10:10:02.767Z,15.03
2019-04-11T10:12:40.574Z,17.63
2019-04-11T10:15:13.628Z,16.10
2019-04-11T10:17:54.796Z,15.50
2019-04-11T10:20:28.824Z,15.67
2019-04-11T10:23:13.367Z,16.80
2019-04-11T10:25:43.661Z,16.03
2019-04-11T10:28:37.584Z,16.90
2019-04-11T10:31:23.231Z,17.70
2019-04-11T10:34:04.630Z,15.70
2019-04-11T10:36:37.242Z,18.00
2019-04-11T10:39:27.118Z,16.40
2019-04-11T10:41:59.030Z,15.47
2019-04-11T10:44:54.120Z,17.13
2019-04-11T10:47:33.245Z,16.83
2019-04-11T10:50:11.516Z,16.50
2019-04-11T10:52:46.759Z,15.60
2019-04-11T10:55:27.383Z,17.20
2019-04-11T10:58:06.763Z,17.10
2019-04-11T11:00:41.365Z,19.63
2019-04-11T11:03:20.291Z,17.60
2019-04-11T11:06:03.168Z,16.10
2019-04-11T11:08:34.664Z,16.83
2019-04-11T11:11:06.290Z,16.93
2019-04-11T11:13:56.350Z,17.50
2019-04-11T11:16:40.347Z,16.87
2019-04-11T11:19:33.760Z,18.10
2019-04-11T11:21:49.219Z,20.10
2019-04-11T11:24:23.936Z,17.00
2019-04-11T11:27:03.993Z,16.50
2019-04-11T11:29:40.331Z,17.03
2019-04-11T11:32:13.324Z,17.17
2019-04-11T11:34:53.279Z,18.37
2019-04-11T11:37:31.296Z,18.87
2019-04-11T11:40:17.199Z,16.13
2019-04-11T11:43:10.717Z,17.50
2019-04-11T11:45:56.876Z,17.70
2019-04-11T11:48:41.758Z,17.63
2019-04-11T11:51:13.641Z,18.50
2019-04-11T11:54:13.618Z,18.27
2019-04-11T11:56:50.633Z,17.60
2019-04-11T11:59:40.759Z,17.47
2019-04-11T12:02:24.284Z,18.50
2019-04-11T12:04:58.791Z,18.47
2019-04-11T12:07:37.056Z,18.80
2019-04-11T12:10:26.116Z,17.93
2019-04-11T12:13:17.181Z,19.07
2019-04-11T12:16:19.087Z,17.90
2019-04-11T12:18:55.869Z,17.10
2019-04-11T12:21:33.261Z,17.30
2019-04-11T12:24:36.487Z,20.17
2019-04-11T12:27:08.679Z,19.10
2019-04-11T12:29:46.814Z,19.33
2019-04-11T12:32:16.600Z,18.40
2019-04-11T12:34:57.732Z,17.37
2019-04-11T12:37:43.390Z,17.80
2019-04-11T12:40:31.653Z,17.10
2019-04-11T12:43:03.426Z,18.73
2019-04-11T12:45:52.132Z,17.37
2019-04-11T12:48:24.953Z,19.30
2019-04-11T12:50:56.761Z,16.37
2019-04-11T12:53:31.105Z,17.30
2019-04-11T12:56:08.870Z,17.80
2019-04-11T12:58:41.594Z,17.03
2019-04-11T13:01:26.517Z,17.77
2019-04-11T13:04:07.949Z,17.90
2019-04-11T13:06:53.801Z,17.73
2019-04-11T13:09:46.641Z,18.87
2019-04-11T13:12:27.366Z,16.97
2019-04-11T13:15:14.921Z,15.67
2019-04-11T13:18:02.531Z,17.67
2019-04-11T13:20:51.177Z,16.60
2019-04-11T13:23:25.615Z,16.73
2019-04-11T13:26:22.565Z,16.87
2019-04-11T13:29:10.485Z,15.37
2019-04-11T13:31:54.184Z,16.87
2019-04-11T13:34:30.590Z,17.80
2019-04-11T13:37:14.318Z,16.70
2019-04-11T13:39:46.737Z,15.90
2019-04-11T13:42:43.701Z,16.93
2019-04-11T13:45:14.669Z,17.47
2019-04-11T13:47:52.281Z,15.33
2019-04-11T13:50:22.371Z,16.00
2019-04-11T13:53:21.705Z,15.73
2019-04-11T13:55:51.801Z,16.00
2019-04-11T13:58:29.289Z,14.90
2019-04-11T14:00:59.464Z,14.80
2019-04-11T14:03:47.462Z,16.17
2019-04-11T14:06:20.061Z,14.77
2019-04-11T14:09:13.141Z,17.00
2019-04-11T14:11:46.784Z,15.10
2019-04-11T14:14:18.275Z,16.50
2019-04-11T14:16:49.875Z,16.00
2019-04-11T14:19:33.563Z,13.97
2019-04-11T14:22:08.326Z,15.37
2019-04-11T14:24:56.364Z,14.83
2019-04-11T14:27:38.659Z,17.93
2019-04-11T14:30:21.201Z,16.37
2019-04-11T14:32:53.951Z,15.07
2019-04-11T14:35:28.467Z,15.20
2019-04-11T14:38:12.192Z,14.87
2019-04-11T14:41:01.661Z,14.10
2019-04-11T14:43:45.896Z,14.70
2019-04-11T14:46:43.157Z,15.17
2019-04-11T14:49:13.121Z,14.73
2019-04-11T14:52:10.233Z,15.50
2019-04-11T14:54:48.873Z,14.30
2019-04-11T14:57:23.395Z,14.80
2019-04-11T15:00:00.186Z,14.33
2019-04-11T15:02:39.801Z,15.07
2019-04-11T15:05:14.429Z,13.87
2019-04-11T15:07:46.136Z,13.63
2019-04-11T15:10:35.277Z,14.47
2019-04-11T15:13:12.897Z,15.73
2019-04-11T15:15:44.637Z,14.20
2019-04-11T15:18:16.017Z,12.83
2019-04-11T15:21:06.596Z,12.67
2019-04-11T15:23:39.487Z,14.07
2019-04-11T15:26:27.081Z,13.47
2019-04-11T15:28:58.816Z,12.10
2019-04-11T15:31:43.269Z,12.80
2019-04-11T15:34:27.390Z,13.70
2019-04-11T15:37:17.045Z,14.30
2019-04-11T15:39:51.586Z,13.70
2019-04-11T15:42:40.572Z,13.70
2019-04-11T15:45:13.547Z,14.33
2019-04-11T15:47:46.771Z,13.27
2019-04-11T15:50:34.613Z,14.70
2019-04-11T15:53:06.552Z,13.30
2019-04-11T15:55:43.347Z,13.93
2019-04-11T15:58:13.297Z,13.67
2019-04-11T16:00:44.854Z,13.23
2019-04-11T16:03:24.529Z,13.50
2019-04-11T16:05:56.125Z,13.30
2019-04-11T16:08:31.815Z,13.33
2019-04-11T16:11:12.216Z,12.70
2019-04-11T16:13:41.907Z,12.03
2019-04-11T16:16:12.980Z,12.47
2019-04-11T16:19:00.821Z,13.00
2019-04-11T16:21:35.045Z,12.93
2019-04-11T16:24:27.318Z,14.83
2019-04-11T16:27:06.925Z,12.80
2019-04-11T16:29:47.325Z,12.93
2019-04-11T16:32:19.002Z,13.27
2019-04-11T16:35:02.433Z,12.80
2019-04-11T16:37:32.641Z,12.57
2019-04-11T16:40:27.673Z,13.37
2019-04-11T16:42:59.425Z,13.60
2019-04-11T16:45:42.597Z,11.83
2019-04-11T16:48:13.691Z,12.23
2019-04-11T16:50:46.099Z,12.20
2019-04-11T16:53:21.409Z,12.57
2019-04-11T16:56:00.531Z,13.33
2019-04-11T16:58:31.369Z,12.23
2019-04-11T17:01:08.473Z,12.20
2019-04-11T17:03:38.847Z,12.17
2019-04-11T17:06:30.205Z,13.40
2019-04-11T17:09:01.989Z,12.93
2019-04-11T17:11:47.417Z,12.53
2019-04-11T17:14:27.699Z,13.90
2019-04-11T17:16:51.245Z,13.43
2019-04-11T17:19:30.221Z,12.57
2019-04-11T17:22:00.201Z,13.40
2019-04-11T17:24:30.314Z,15.23
2019-04-11T17:27:12.761Z,11.57
2019-04-11T17:29:48.867Z,11.60
2019-04-11T17:32:18.697Z,13.73
2019-04-11T17:34:48.412Z,12.80
2019-04-11T17:37:18.365Z,12.30
2019-04-11T17:39:48.538Z,12.97
2019-04-11T17:42:18.381Z,12.67
2019-04-11T17:44:48.377Z,12.60
2019-04-11T17:47:19.458Z,11.60
2019-04-11T17:50:04.226Z,12.10
2019-04-11T17:52:34.507Z,11.40
2019-04-11T17:55:07.484Z,10.40
2019-04-11T17:57:37.553Z,11.80
2019-04-11T18:00:11.153Z,11.47
2019-04-11T18:02:42.049Z,11.20
2019-04-11T18:05:12.302Z,12.83
2019-04-11T18:07:42.299Z,12.17
2019-04-11T18:10:12.594Z,11.00
2019-04-11T18:12:42.720Z,10.97
2019-04-11T18:15:22.945Z,11.47
2019-04-11T18:17:52.901Z,11.43
2019-04-11T18:20:23.013Z,11.53
2019-04-11T18:22:54.348Z,11.67
2019-04-11T18:25:25.531Z,12.33
2019-04-11T18:28:01.755Z,10.90
2019-04-11T18:30:31.937Z,11.40
2019-04-11T18:33:01.862Z,10.87
2019-04-11T18:35:37.635Z,11.83
2019-04-11T18:38:13.869Z,11.70
2019-04-11T18:40:47.005Z,12.10
2019-04-11T18:43:16.919Z,11.00
2019-04-11T18:45:49.001Z,11.00
2019-04-11T18:48:19.110Z,12.00
2019-04-11T18:50:50.868Z,12.10
2019-04-11T18:53:22.091Z,12.60
2019-04-11T18:55:51.965Z,10.90
2019-04-11T18:58:21.677Z,10.10
2019-04-11T19:00:52.677Z,11.00
2019-04-11T19:03:22.803Z,9.70
2019-04-11T19:05:53.033Z,11.97
2019-04-11T19:08:23.288Z,11.00
2019-04-11T19:10:54.073Z,9.80
2019-04-11T19:13:23.934Z,10.40
2019-04-11T19:15:56.995Z,10.58
2019-04-11T19:18:30.849Z,10.55
2019-04-11T19:21:01.278Z,11.57
2019-04-11T19:23:31.647Z,10.55
2019-04-11T19:26:02.076Z,11.48
2019-04-11T19:28:31.945Z,11.15
2019-04-11T19:31:03.558Z,11.73
2019-04-11T19:33:34.875Z,11.63
2019-04-11T19:36:06.778Z,12.15
2019-04-11T19:38:42.997Z,12.33
2019-04-11T19:41:11.679Z,10.95
2019-04-11T19:43:42.715Z,11.80
2019-04-11T19:46:13.794Z,11.03
2019-04-11T19:48:45.549Z,11.10
2019-04-11T19:51:16.177Z,10.72
2019-04-11T19:53:46.227Z,10.68
2019-04-11T19:56:21.715Z,10.18
2019-04-11T19:58:51.590Z,10.78
2019-04-11T20:01:23.467Z,10.78
2019-04-11T20:03:54.002Z,11.85
2019-04-11T20:06:25.925Z,9.48
2019-04-11T20:09:01.627Z,9.45
2019-04-11T20:11:31.738Z,10.05
2019-04-11T20:14:02.863Z,10.00
2019-04-11T20:16:41.422Z,9.88
2019-04-11T20:19:05.959Z,10.58
2019-04-11T20:21:42.136Z,9.65
2019-04-11T20:24:14.553Z,9.28
2019-04-11T20:26:44.053Z,8.55
2019-04-11T20:29:14.229Z,8.60
2019-04-11T20:31:43.934Z,9.13
2019-04-11T20:34:13.875Z,9.00
2019-04-11T20:36:44.301Z,10.20
2019-04-11T20:39:15.969Z,8.98
2019-04-11T20:41:53.186Z,8.00
2019-04-11T20:44:21.065Z,8.25
2019-04-11T20:46:51.854Z,8.93
2019-04-11T20:49:21.826Z,8.00
2019-04-11T20:51:51.922Z,7.40
2019-04-11T20:54:23.020Z,7.40
2019-04-11T20:56:53.111Z,6.97
2019-04-11T20:59:33.980Z,7.55
2019-04-11T21:01:56.433Z,6.50
2019-04-11T21:04:26.897Z,6.72
2019-04-11T21:06:57.017Z,7.80
2019-04-11T21:09:33.001Z,7.33
2019-04-11T21:12:01.994Z,7.37
2019-04-11T21:14:34.086Z,7.42
2019-04-11T21:17:04.182Z,7.08
2019-04-11T21:19:36.233Z,6.10
2019-04-11T21:22:06.370Z,7.10
2019-04-11T21:24:44.762Z,6.22
2019-04-11T21:27:14.887Z,6.00
2019-04-11T21:29:45.693Z,6.25
2019-04-11T21:32:15.650Z,7.45
2019-04-11T21:34:45.780Z,5.95
2019-04-11T21:37:16.817Z,7.28
2019-04-11T21:39:47.590Z,6.62
2019-04-11T21:42:17.630Z,6.65
2019-04-11T21:44:47.728Z,5.45
2019-04-11T21:47:17.829Z,6.47
2019-04-11T21:49:47.938Z,7.30
2019-04-11T21:52:17.895Z,6.80
2019-04-11T21:54:49.927Z,5.80
2019-04-11T21:57:19.783Z,6.80
2019-04-11T21:59:51.510Z,6.85
2019-04-11T22:02:24.086Z,6.45
2019-04-11T22:04:58.570Z,6.17
2019-04-11T22:07:30.835Z,5.75
2019-04-11T22:10:07.138Z,6.17
2019-04-11T22:12:40.061Z,6.15
2019-04-11T22:15:12.071Z,5.97
2019-04-11T22:17:42.978Z,5.83
2019-04-11T22:20:16.766Z,6.37
2019-04-11T22:22:49.102Z,5.97
2019-04-11T22:25:19.199Z,5.95
2019-04-11T22:27:53.854Z,6.50
2019-04-11T22:30:25.310Z,5.78
2019-04-11T22:33:03.367Z,7.17
2019-04-11T22:35:33.038Z,6.28
2019-04-11T22:38:02.747Z,7.08
2019-04-11T22:40:32.679Z,5.80
2019-04-11T22:43:02.618Z,5.42
2019-04-11T22:45:32.735Z,5.62
2019-04-11T22:48:02.570Z,6.22
2019-04-11T22:50:40.322Z,5.97
2019-04-11T22:53:12.820Z,5.55
2019-04-11T22:55:43.893Z,5.87
2019-04-11T22:58:14.633Z,6.08
2019-04-11T23:00:45.871Z,6.45
2019-04-11T23:03:32.960Z,5.80
2019-04-11T23:06:03.734Z,5.85
2019-04-11T23:08:39.723Z,5.20
2019-04-11T23:11:09.948Z,6.05
2019-04-11T23:13:41.102Z,5.40
2019-04-11T23:16:14.441Z,5.97
2019-04-11T23:18:44.968Z,5.65
2019-04-11T23:21:15.297Z,5.30
2019-04-11T23:23:45.915Z,5.75
2019-04-11T23:26:15.877Z,5.00
2019-04-11T23:28:46.849Z,5.20
2019-04-11T23:31:21.038Z,5.00
2019-04-11T23:33:55.461Z,6.45
2019-04-11T23:36:25.281Z,5.72
2019-04-11T23:39:02.977Z,5.37
2019-04-11T23:41:34.677Z,6.00
2019-04-11T23:44:05.101Z,5.45
2019-04-11T23:46:34.929Z,5.97
2019-04-11T23:49:05.787Z,6.12
2019-04-11T23:51:35.702Z,5.80
2019-04-11T23:54:06.875Z,5.28
2019-04-11T23:56:37.889Z,4.85
2019-04-11T23:59:07.989Z,5.67
